Time;durP1;ratioP1;P1;durP2;ratioP2;P2;SDS_P1;SDS_P2;PMS_P1;PMS_P2;Temp;Humidity;BMP_temperature;BMP_pressure;BME280_temperature;BME280_humidity;BME280_pressure;Samples;Min_cycle;Max_cycle;Signal;HPM_P1;HPM_P2
2022/06/09 00:01:45;;;;;;;18.23;7.72;;;15.50;99.90;;;;;;5059691;28;20485;-44
2022/06/09 00:04:14;;;;;;;23.23;8.75;;;15.50;99.90;;;;;;5078879;28;20101;-44
2022/06/09 00:06:43;;;;;;;31.27;9.60;;;15.50;99.90;;;;;;5062135;28;20558;-44
2022/06/09 00:09:11;;;;;;;22.45;9.45;;;15.40;99.90;;;;;;5064289;28;20067;-43
2022/06/09 00:11:40;;;;;;;28.85;9.32;;;15.50;99.90;;;;;;5054866;28;20504;-44
2022/06/09 00:14:07;;;;;;;23.48;8.63;;;15.40;99.90;;;;;;5071957;28;20141;-44
2022/06/09 00:16:34;;;;;;;22.08;8.10;;;15.40;99.90;;;;;;5053598;28;20056;-44
2022/06/09 00:19:01;;;;;;;22.13;8.43;;;15.40;99.90;;;;;;5064895;28;20465;-44
2022/06/09 00:21:28;;;;;;;20.88;7.57;;;15.40;99.90;;;;;;5052613;28;20132;-44
2022/06/09 00:23:55;;;;;;;22.88;6.93;;;15.30;99.90;;;;;;5063531;28;20056;-44
2022/06/09 00:26:23;;;;;;;21.17;7.57;;;15.30;99.90;;;;;;5061880;28;20489;-44
2022/06/09 00:28:50;;;;;;;20.25;7.07;;;15.30;99.90;;;;;;5065970;28;20485;-44
2022/06/09 00:31:16;;;;;;;15.15;6.28;;;15.30;99.90;;;;;;5073666;28;20106;-44
2022/06/09 00:33:43;;;;;;;18.00;6.20;;;15.20;99.90;;;;;;5062550;28;20088;-44
2022/06/09 00:36:10;;;;;;;17.70;7.00;;;15.20;99.90;;;;;;5053740;28;20053;-44
2022/06/09 00:38:37;;;;;;;19.90;7.47;;;15.20;99.90;;;;;;5055741;28;20049;-44
2022/06/09 00:41:04;;;;;;;18.30;6.57;;;15.20;99.90;;;;;;5052192;28;20052;-44
2022/06/09 00:43:32;;;;;;;18.17;6.00;;;15.10;99.90;;;;;;5060863;28;20056;-44
2022/06/09 00:46:04;;;;;;;17.83;6.28;;;15.10;99.90;;;;;;5066353;28;20455;-44
2022/06/09 00:48:38;;;;;;;16.65;6.38;;;15.10;99.90;;;;;;5071925;28;20055;-44
2022/06/09 00:51:11;;;;;;;25.70;6.53;;;15.00;99.90;;;;;;5057102;28;20489;-44
2022/06/09 00:53:38;;;;;;;18.25;6.82;;;15.00;99.90;;;;;;5069344;28;20110;-44
2022/06/09 00:56:05;;;;;;;21.10;6.70;;;15.00;99.90;;;;;;5071827;28;20097;-44
2022/06/09 00:58:35;;;;;;;20.20;5.95;;;14.90;99.90;;;;;;5053027;28;20077;-44
2022/06/09 01:01:04;;;;;;;18.10;6.28;;;14.90;99.90;;;;;;5058600;28;20080;-44
2022/06/09 01:03:32;;;;;;;23.25;6.68;;;14.80;99.90;;;;;;5061112;28;20049;-44
2022/06/09 01:06:03;;;;;;;22.45;7.10;;;14.70;99.90;;;;;;5068304;28;20056;-44
2022/06/09 01:08:30;;;;;;;19.40;6.20;;;14.70;99.90;;;;;;5056685;28;20435;-44
2022/06/09 01:10:56;;;;;;;23.98;8.13;;;14.70;99.90;;;;;;5068150;28;20037;-44
2022/06/09 01:13:23;;;;;;;21.33;6.95;;;14.70;99.90;;;;;;5060395;28;20098;-45
2022/06/09 01:15:55;;;;;;;21.55;7.53;;;14.70;99.90;;;;;;5060190;28;20526;-44
2022/06/09 01:18:28;;;;;;;24.83;8.00;;;14.70;99.90;;;;;;5056110;28;20041;-44
2022/06/09 01:20:59;;;;;;;22.52;8.05;;;14.60;99.90;;;;;;5051566;28;20405;-45
2022/06/09 01:23:55;;;;;;;19.38;7.03;;;14.60;99.90;;;;;;5063876;28;20141;-44
2022/06/09 01:26:50;;;;;;;21.45;7.60;;;14.70;99.90;;;;;;5056261;28;20048;-44
2022/06/09 01:29:34;;;;;;;28.35;9.07;;;14.60;99.90;;;;;;5063583;28;20463;-45
2022/06/09 01:32:05;;;;;;;24.35;7.93;;;14.60;99.90;;;;;;5052263;28;20053;-45
2022/06/09 01:34:36;;;;;;;20.15;6.47;;;14.60;99.90;;;;;;5069216;28;20052;-44
2022/06/09 01:37:04;;;;;;;25.98;9.73;;;14.60;99.90;;;;;;5069742;28;20514;-44
2022/06/09 01:39:47;;;;;;;18.50;7.55;;;14.60;99.90;;;;;;5066599;28;20057;-44
2022/06/09 01:42:25;;;;;;;22.85;8.07;;;14.50;99.90;;;;;;5066516;28;20048;-44
2022/06/09 01:44:53;;;;;;;26.60;8.95;;;14.60;99.90;;;;;;5057888;28;20052;-44
2022/06/09 01:47:21;;;;;;;18.85;7.32;;;14.50;99.90;;;;;;5067940;28;20053;-45
2022/06/09 01:49:48;;;;;;;25.13;8.65;;;14.50;99.90;;;;;;5065887;28;20080;-45
2022/06/09 01:52:15;;;;;;;16.73;6.68;;;14.50;99.90;;;;;;5054198;28;20052;-45
2022/06/09 01:54:42;;;;;;;25.88;9.48;;;14.40;99.90;;;;;;5069588;28;20519;-44
2022/06/09 01:57:12;;;;;;;24.55;8.48;;;14.40;99.90;;;;;;5069110;28;20558;-44
2022/06/09 01:59:40;;;;;;;34.83;9.65;;;14.40;99.90;;;;;;5059254;28;20087;-45
2022/06/09 02:02:08;;;;;;;21.92;8.35;;;14.40;99.90;;;;;;5053346;28;20115;-44
2022/06/09 02:04:38;;;;;;;34.00;9.15;;;14.30;99.90;;;;;;5063863;28;20045;-45
2022/06/09 02:07:06;;;;;;;24.13;9.07;;;14.40;99.90;;;;;;5058019;28;20053;-45
2022/06/09 02:09:33;;;;;;;25.55;9.73;;;14.30;99.90;;;;;;5051336;28;20390;-44
2022/06/09 02:12:03;;;;;;;22.40;7.55;;;14.30;99.90;;;;;;5064202;28;20561;-45
2022/06/09 02:14:30;;;;;;;25.63;8.05;;;14.20;99.90;;;;;;5068213;28;20061;-45
2022/06/09 02:16:58;;;;;;;24.10;8.95;;;14.20;99.90;;;;;;5057241;28;20098;-44
2022/06/09 02:19:25;;;;;;;18.25;7.43;;;14.20;99.90;;;;;;5069013;28;20139;-44
2022/06/09 02:21:53;;;;;;;21.75;6.80;;;14.10;99.90;;;;;;5053907;28;20056;-44
2022/06/09 02:24:20;;;;;;;20.60;7.57;;;14.10;99.90;;;;;;5061984;28;20053;-44
2022/06/09 02:26:47;;;;;;;22.63;7.90;;;14.10;99.90;;;;;;5058695;28;20076;-44
2022/06/09 02:29:14;;;;;;;27.77;8.25;;;14.00;99.90;;;;;;5064731;28;20040;-44
2022/06/09 02:31:41;;;;;;;29.67;9.15;;;14.00;99.90;;;;;;5052555;28;20059;-44
2022/06/09 02:34:09;;;;;;;15.73;6.80;;;14.00;99.90;;;;;;5059803;28;20048;-44
2022/06/09 02:36:35;;;;;;;21.35;7.95;;;13.90;99.90;;;;;;5054409;28;20049;-45
2022/06/09 02:39:04;;;;;;;16.02;6.43;;;13.90;99.90;;;;;;5079576;28;20057;-44
2022/06/09 02:41:31;;;;;;;13.23;6.40;;;13.90;99.90;;;;;;5068126;28;20053;-44
2022/06/09 02:43:58;;;;;;;30.83;8.77;;;13.90;99.90;;;;;;5071058;28;20123;-45
2022/06/09 02:46:24;;;;;;;26.70;8.80;;;13.90;99.90;;;;;;5052548;28;20125;-45
2022/06/09 02:48:52;;;;;;;25.13;9.20;;;13.80;99.90;;;;;;5062934;28;20506;-44
2022/06/09 02:51:22;;;;;;;21.92;8.05;;;13.80;99.90;;;;;;5062403;28;20080;-44
2022/06/09 02:53:49;;;;;;;20.20;7.70;;;13.80;99.90;;;;;;5069590;28;20481;-44
2022/06/09 02:56:17;;;;;;;18.80;7.60;;;13.80;99.90;;;;;;5070667;28;20060;-45
2022/06/09 02:58:44;;;;;;;20.08;7.88;;;13.70;99.90;;;;;;5067818;28;20056;-45
2022/06/09 03:01:10;;;;;;;19.55;7.55;;;13.70;99.90;;;;;;5054047;28;20106;-44
2022/06/09 03:03:37;;;;;;;23.27;8.45;;;13.70;99.90;;;;;;5070473;28;20087;-45
2022/06/09 03:06:04;;;;;;;16.35;7.55;;;13.70;99.90;;;;;;5058415;28;20173;-45
2022/06/09 03:08:31;;;;;;;24.02;9.80;;;13.70;99.90;;;;;;5054620;28;20053;-44
2022/06/09 03:10:58;;;;;;;14.82;6.38;;;13.60;99.90;;;;;;5065593;28;20053;-44
2022/06/09 03:13:26;;;;;;;15.13;7.28;;;13.60;99.90;;;;;;5059198;28;20566;-45
2022/06/09 03:15:53;;;;;;;20.63;7.30;;;13.60;99.90;;;;;;5074430;28;20106;-44
2022/06/09 03:18:20;;;;;;;20.48;7.68;;;13.60;99.90;;;;;;5060956;28;20048;-44
2022/06/09 03:20:48;;;;;;;18.63;7.68;;;13.60;99.90;;;;;;5061666;28;20107;-44
2022/06/09 03:23:15;;;;;;;15.00;6.78;;;13.60;99.90;;;;;;5053707;28;20122;-44
2022/06/09 03:25:42;;;;;;;14.50;6.25;;;13.50;99.90;;;;;;5055248;28;20049;-44
2022/06/09 03:28:09;;;;;;;17.27;6.88;;;13.50;99.90;;;;;;5058851;28;20049;-44
2022/06/09 03:30:37;;;;;;;24.38;8.95;;;13.50;99.90;;;;;;5055226;28;20098;-44
2022/06/09 03:33:04;;;;;;;20.77;8.80;;;13.50;99.90;;;;;;5060608;28;20044;-44
2022/06/09 03:35:31;;;;;;;22.73;7.38;;;13.50;99.90;;;;;;5058097;28;20041;-45
2022/06/09 03:37:58;;;;;;;20.55;8.38;;;13.40;99.90;;;;;;5070419;28;20475;-44
2022/06/09 03:40:28;;;;;;;17.08;6.80;;;13.50;99.90;;;;;;5054610;28;20144;-44
2022/06/09 03:42:55;;;;;;;26.73;8.23;;;13.50;99.90;;;;;;5053441;28;20409;-45
2022/06/09 03:45:22;;;;;;;24.52;8.82;;;13.40;99.90;;;;;;5061828;28;20376;-45
2022/06/09 03:47:50;;;;;;;23.05;8.15;;;13.40;99.90;;;;;;5056772;28;20052;-44
2022/06/09 03:50:19;;;;;;;27.70;8.70;;;13.40;99.90;;;;;;5061674;28;20102;-44
2022/06/09 03:52:46;;;;;;;17.33;7.15;;;13.50;99.90;;;;;;5080049;28;20083;-45
2022/06/09 03:55:12;;;;;;;26.50;9.07;;;13.40;99.90;;;;;;5058761;28;20056;-44
2022/06/09 03:57:39;;;;;;;20.25;7.70;;;13.40;99.90;;;;;;5070650;28;20049;-45
2022/06/09 04:00:07;;;;;;;19.25;8.38;;;13.50;99.90;;;;;;5056938;28;20057;-44
2022/06/09 04:02:34;;;;;;;27.15;9.40;;;13.50;99.90;;;;;;5067872;28;20045;-44
2022/06/09 04:05:02;;;;;;;25.40;9.52;;;13.50;99.90;;;;;;5071765;28;20044;-45
2022/06/09 04:07:29;;;;;;;21.55;8.32;;;13.50;99.90;;;;;;5071019;28;20511;-45
2022/06/09 04:09:56;;;;;;;28.02;10.60;;;13.50;99.90;;;;;;5064229;28;20115;-44
2022/06/09 04:12:22;;;;;;;32.92;10.85;;;13.50;99.90;;;;;;5062870;28;20052;-44
2022/06/09 04:14:49;;;;;;;25.80;10.90;;;13.60;99.90;;;;;;5060473;28;20159;-44
2022/06/09 04:17:16;;;;;;;31.48;11.02;;;13.60;99.90;;;;;;5055134;28;20049;-45
2022/06/09 04:19:43;;;;;;;23.27;9.73;;;13.50;99.90;;;;;;5051910;28;20513;-45
2022/06/09 04:22:12;;;;;;;28.08;10.30;;;13.60;99.90;;;;;;5053954;28;20509;-44
2022/06/09 04:24:39;;;;;;;25.08;9.43;;;13.70;99.90;;;;;;5053000;28;20495;-45
2022/06/09 04:27:06;;;;;;;20.75;9.32;;;13.70;99.90;;;;;;5054804;28;20134;-44
2022/06/09 04:29:32;;;;;;;20.15;8.98;;;13.70;99.90;;;;;;5070749;28;20044;-44
2022/06/09 04:31:59;;;;;;;27.95;10.07;;;13.70;99.90;;;;;;5068879;28;20508;-45
2022/06/09 04:34:26;;;;;;;28.90;11.20;;;13.80;99.90;;;;;;5060840;28;20084;-45
2022/06/09 04:36:53;;;;;;;21.77;9.50;;;13.80;99.90;;;;;;5079189;28;20048;-44
2022/06/09 04:39:21;;;;;;;28.52;10.32;;;13.80;99.90;;;;;;5062203;28;20405;-45
2022/06/09 04:41:48;;;;;;;27.02;9.43;;;13.90;99.90;;;;;;5074103;28;20080;-45
2022/06/09 04:44:15;;;;;;;31.38;10.35;;;13.90;99.90;;;;;;5065962;28;20114;-45
2022/06/09 04:46:42;;;;;;;25.63;8.70;;;13.90;99.90;;;;;;5073729;28;20048;-45
2022/06/09 04:49:09;;;;;;;20.77;8.10;;;14.00;99.90;;;;;;5069252;28;20562;-45
2022/06/09 04:51:36;;;;;;;21.95;8.30;;;14.00;99.90;;;;;;5068788;28;20144;-45
2022/06/09 04:54:03;;;;;;;18.73;9.48;;;14.10;99.90;;;;;;5062074;28;20080;-45
2022/06/09 04:56:31;;;;;;;24.33;8.68;;;14.10;99.90;;;;;;5070041;28;20506;-45
2022/06/09 04:58:58;;;;;;;24.90;8.85;;;14.20;99.90;;;;;;5066897;28;20048;-45
2022/06/09 05:01:26;;;;;;;22.92;8.98;;;14.20;99.90;;;;;;5076438;28;20044;-44
2022/06/09 05:03:53;;;;;;;21.67;9.70;;;14.20;99.90;;;;;;5071693;28;20076;-45
2022/06/09 05:06:20;;;;;;;18.85;7.95;;;14.30;99.90;;;;;;5066334;28;20080;-45
2022/06/09 05:08:47;;;;;;;18.45;9.02;;;14.30;99.90;;;;;;5078874;28;20048;-45
2022/06/09 05:11:14;;;;;;;20.10;8.52;;;14.30;99.90;;;;;;5069426;28;20056;-45
2022/06/09 05:13:42;;;;;;;21.80;8.20;;;14.30;99.90;;;;;;5057510;28;20341;-45
2022/06/09 05:16:08;;;;;;;20.33;9.02;;;14.40;99.90;;;;;;5072171;28;20098;-45
2022/06/09 05:18:36;;;;;;;21.08;9.18;;;14.50;99.90;;;;;;5072375;28;20477;-45
2022/06/09 05:21:03;;;;;;;17.30;8.30;;;14.50;99.90;;;;;;5058878;28;20090;-45
2022/06/09 05:23:30;;;;;;;24.60;8.82;;;14.50;99.90;;;;;;5059358;28;20107;-45
2022/06/09 05:25:57;;;;;;;19.15;9.05;;;14.60;99.90;;;;;;5056097;28;20554;-45
2022/06/09 05:28:25;;;;;;;19.00;8.68;;;14.60;99.90;;;;;;5070253;28;20076;-45
2022/06/09 05:30:53;;;;;;;20.90;8.18;;;14.60;99.90;;;;;;5071898;28;20072;-45
2022/06/09 05:33:20;;;;;;;16.98;8.63;;;14.60;99.90;;;;;;5072035;28;20052;-45
2022/06/09 05:35:47;;;;;;;21.70;10.50;;;14.70;99.90;;;;;;5072092;28;20496;-45
2022/06/09 05:46:28;;;;;;;21.00;13.18;;;14.70;99.90;;;;;;5071906;28;20052;-46
2022/06/09 05:48:55;;;;;;;22.63;12.63;;;14.70;99.90;;;;;;5071692;28;20072;-45
2022/06/09 05:51:22;;;;;;;23.42;14.65;;;14.70;99.90;;;;;;5072642;28;20055;-46
2022/06/09 05:53:49;;;;;;;26.45;14.55;;;14.70;99.90;;;;;;5071818;28;20524;-46
2022/06/09 05:56:16;;;;;;;20.30;13.23;;;14.70;99.90;;;;;;5072887;28;20048;-46
2022/06/09 05:58:43;;;;;;;21.45;12.77;;;14.70;99.90;;;;;;5072468;28;20061;-45
2022/06/09 06:01:11;;;;;;;22.40;12.75;;;14.70;99.90;;;;;;5071682;28;20084;-45
2022/06/09 06:03:39;;;;;;;21.40;12.02;;;14.70;99.90;;;;;;5072999;28;20476;-45
2022/06/09 06:08:50;;;;;;;23.63;12.20;;;14.80;99.90;;;;;;5071602;28;20056;-46
2022/06/09 06:11:17;;;;;;;18.50;11.27;;;14.90;99.90;;;;;;5071637;28;20048;-46
2022/06/09 06:13:44;;;;;;;21.15;12.40;;;14.90;99.90;;;;;;5072552;28;20052;-45
2022/06/09 06:16:11;;;;;;;20.33;13.35;;;14.90;99.90;;;;;;5072592;28;20098;-46
2022/06/09 06:18:39;;;;;;;25.13;14.82;;;14.90;99.90;;;;;;5071224;28;20121;-45
2022/06/09 06:21:06;;;;;;;21.13;14.50;;;15.00;99.90;;;;;;5072348;28;20080;-45
2022/06/09 06:23:33;;;;;;;25.23;15.57;;;15.00;99.90;;;;;;5071532;28;20106;-45
2022/06/09 06:25:59;;;;;;;21.10;14.70;;;15.00;99.90;;;;;;5072459;28;20094;-45
2022/06/09 06:28:26;;;;;;;29.05;16.85;;;15.00;99.90;;;;;;5071098;28;20131;-45
2022/06/09 06:30:54;;;;;;;26.45;16.52;;;15.10;99.90;;;;;;5072715;28;20052;-46
2022/06/09 06:33:22;;;;;;;20.45;15.32;;;15.10;99.90;;;;;;5072333;28;20091;-45
2022/06/09 06:35:50;;;;;;;24.08;16.77;;;15.20;99.90;;;;;;5072354;28;20062;-45
2022/06/09 06:38:17;;;;;;;22.20;15.98;;;15.30;99.90;;;;;;5071265;28;20067;-46
2022/06/09 06:40:44;;;;;;;25.42;17.00;;;15.30;99.90;;;;;;5071065;28;20504;-45
2022/06/09 06:43:14;;;;;;;24.83;16.65;;;15.50;99.90;;;;;;5075204;28;20083;-45
2022/06/09 06:45:41;;;;;;;30.38;16.42;;;15.60;99.90;;;;;;5075296;28;20163;-46
2022/06/09 06:48:09;;;;;;;23.17;16.55;;;15.60;99.90;;;;;;5076223;28;20526;-45
2022/06/09 06:50:35;;;;;;;25.42;16.50;;;15.80;99.90;;;;;;5075518;28;20040;-45
2022/06/09 06:53:05;;;;;;;20.42;14.73;;;15.90;99.90;;;;;;5076504;28;20127;-45
2022/06/09 06:55:32;;;;;;;21.75;14.68;;;15.90;99.90;;;;;;5075115;28;20095;-45
2022/06/09 06:57:59;;;;;;;18.67;14.27;;;15.90;99.90;;;;;;5074939;28;20044;-45
2022/06/09 07:00:26;;;;;;;19.38;13.40;;;16.10;99.90;;;;;;5075847;28;20123;-45
2022/06/09 07:02:54;;;;;;;17.83;13.35;;;16.30;99.90;;;;;;5075903;28;20137;-45
2022/06/09 07:05:21;;;;;;;22.02;13.75;;;16.50;99.90;;;;;;5075078;28;20084;-45
2022/06/09 07:07:49;;;;;;;18.38;13.48;;;16.60;99.90;;;;;;5075105;28;20084;-45
2022/06/09 07:10:18;;;;;;;21.85;14.85;;;16.60;99.90;;;;;;5075278;28;20088;-45
2022/06/09 07:12:45;;;;;;;20.60;12.57;;;16.80;99.90;;;;;;5074727;28;20098;-44
2022/06/09 07:15:13;;;;;;;15.82;10.93;;;16.80;99.90;;;;;;5074824;28;20045;-45
2022/06/09 07:17:40;;;;;;;17.65;11.38;;;16.90;99.90;;;;;;5076110;28;20056;-45
2022/06/09 07:20:07;;;;;;;15.73;10.52;;;16.90;99.90;;;;;;5076030;28;20106;-45
2022/06/09 07:22:34;;;;;;;14.93;8.95;;;17.00;99.90;;;;;;5075777;28;20424;-45
2022/06/09 07:25:01;;;;;;;13.40;8.57;;;17.10;99.90;;;;;;5074562;28;20053;-46
2022/06/09 07:27:29;;;;;;;12.40;7.57;;;17.20;99.90;;;;;;5074258;28;20063;-45
2022/06/09 07:29:56;;;;;;;11.23;8.00;;;17.40;99.90;;;;;;5074614;28;20084;-45
2022/06/09 07:32:23;;;;;;;11.77;7.50;;;17.60;99.90;;;;;;5074624;28;20566;-45
2022/06/09 07:34:50;;;;;;;16.15;6.28;;;17.90;99.90;;;;;;5074762;28;20104;-44
2022/06/09 07:37:17;;;;;;;11.35;5.90;;;18.00;99.90;;;;;;5075312;28;20488;-44
2022/06/09 07:39:44;;;;;;;11.50;5.30;;;18.10;99.90;;;;;;5075438;28;20062;-44
2022/06/09 07:42:11;;;;;;;11.32;6.15;;;18.20;99.90;;;;;;5075357;28;20118;-44
2022/06/09 07:44:39;;;;;;;11.07;5.80;;;18.30;99.90;;;;;;5073828;28;20087;-44
2022/06/09 07:47:06;;;;;;;13.10;5.60;;;18.40;99.90;;;;;;5075201;28;20095;-44
2022/06/09 07:49:34;;;;;;;9.15;5.22;;;18.40;99.90;;;;;;5074350;28;20408;-44
2022/06/09 07:52:00;;;;;;;9.80;4.30;;;18.50;99.90;;;;;;5075119;28;20059;-44
2022/06/09 07:54:27;;;;;;;8.00;4.70;;;18.60;99.90;;;;;;5073823;28;20087;-44
2022/06/09 07:56:54;;;;;;;9.18;4.43;;;18.60;99.90;;;;;;5074957;28;20106;-44
2022/06/09 07:59:21;;;;;;;9.43;4.25;;;18.60;99.90;;;;;;5073824;28;20501;-44
2022/06/09 08:01:49;;;;;;;8.65;4.28;;;18.80;99.90;;;;;;5074875;28;20052;-44
2022/06/09 08:04:16;;;;;;;7.30;3.47;;;18.90;99.90;;;;;;5073960;28;20573;-44
2022/06/09 08:06:43;;;;;;;8.18;3.47;;;19.10;99.90;;;;;;5074031;28;20063;-44
2022/06/09 08:09:11;;;;;;;11.25;3.20;;;19.20;99.90;;;;;;5073925;28;20056;-45
2022/06/09 08:11:38;;;;;;;6.47;2.88;;;19.30;99.90;;;;;;5074149;28;20048;-44
2022/06/09 08:14:05;;;;;;;9.25;3.15;;;19.30;99.90;;;;;;5073554;28;20517;-44
2022/06/09 08:16:33;;;;;;;7.82;2.85;;;19.40;99.90;;;;;;5074081;28;20084;-44
2022/06/09 08:19:01;;;;;;;6.47;2.90;;;19.50;99.90;;;;;;5074917;28;20056;-44
2022/06/09 08:21:28;;;;;;;9.40;2.58;;;19.80;99.90;;;;;;5073915;28;20186;-44
2022/06/09 08:23:55;;;;;;;6.97;2.00;;;19.80;99.90;;;;;;5073784;28;20098;-44
2022/06/09 08:26:22;;;;;;;6.43;2.40;;;19.70;99.90;;;;;;5073667;28;20133;-44
2022/06/09 08:28:49;;;;;;;6.28;1.65;;;19.80;99.90;;;;;;5074114;28;20094;-44
2022/06/09 08:31:16;;;;;;;3.92;1.35;;;19.90;99.90;;;;;;5074383;28;20554;-44
2022/06/09 08:33:42;;;;;;;4.03;1.30;;;20.10;99.90;;;;;;5074594;28;20102;-44
2022/06/09 08:36:11;;;;;;;5.18;1.50;;;20.30;99.90;;;;;;5072909;28;20056;-44
2022/06/09 08:38:38;;;;;;;4.13;1.60;;;20.50;99.90;;;;;;5054427;28;20049;-44
2022/06/09 08:41:08;;;;;;;6.50;1.60;;;20.50;99.90;;;;;;5053427;28;20056;-44
2022/06/09 08:43:38;;;;;;;5.10;1.60;;;20.50;99.90;;;;;;5053050;28;20417;-44
2022/06/09 08:46:23;;;;;;;12.33;2.13;;;20.40;99.90;;;;;;5054181;28;20088;-44
2022/06/09 08:48:50;;;;;;;5.75;1.40;;;20.40;99.90;;;;;;5054239;28;20049;-44
2022/06/09 08:51:20;;;;;;;5.50;1.30;;;20.50;99.90;;;;;;5052931;28;20099;-44
2022/06/09 08:53:49;;;;;;;7.47;1.73;;;20.80;99.90;;;;;;5054034;28;20060;-44
2022/06/09 08:56:18;;;;;;;5.07;1.65;;;20.90;99.90;;;;;;5053914;28;20504;-45
2022/06/09 08:58:47;;;;;;;5.85;1.60;;;21.00;99.90;;;;;;5069016;28;20504;-45
2022/06/09 09:01:22;;;;;;;4.65;1.50;;;21.00;99.90;;;;;;5072740;28;20425;-44
2022/06/09 09:03:50;;;;;;;6.05;1.75;;;21.00;99.90;;;;;;5072409;28;20053;-45
2022/06/09 09:06:22;;;;;;;8.60;1.85;;;21.10;99.90;;;;;;5072471;28;20570;-44
2022/06/09 09:08:49;;;;;;;3.38;1.20;;;21.30;99.90;;;;;;5072549;28;20060;-44
2022/06/09 09:11:27;;;;;;;5.63;1.25;;;21.20;99.40;;;;;;5072620;28;20098;-44
2022/06/09 09:13:59;;;;;;;6.30;1.30;;;21.20;99.10;;;;;;5072834;28;20090;-44
2022/06/09 09:16:28;;;;;;;4.00;1.10;;;21.20;99.30;;;;;;5073391;28;20044;-44
2022/06/09 09:18:57;;;;;;;7.25;1.65;;;21.40;98.90;;;;;;5074288;28;20095;-44
2022/06/09 09:21:48;;;;;;;5.95;1.08;;;21.50;98.90;;;;;;5073912;28;20245;-45
2022/06/09 09:24:22;;;;;;;6.80;1.38;;;21.60;97.80;;;;;;5073655;28;20125;-44
2022/06/09 09:26:53;;;;;;;4.57;1.40;;;21.60;97.90;;;;;;5073648;28;20408;-44
2022/06/09 09:29:23;;;;;;;4.28;1.40;;;21.50;97.50;;;;;;5073030;28;20053;-45
2022/06/09 09:31:52;;;;;;;7.30;1.40;;;21.50;98.30;;;;;;5072380;28;20118;-44
2022/06/09 09:34:21;;;;;;;6.00;1.38;;;21.50;97.50;;;;;;5073521;28;20057;-44
2022/06/09 09:36:51;;;;;;;4.63;1.20;;;21.60;96.60;;;;;;5067384;28;20048;-44
2022/06/09 09:39:20;;;;;;;7.13;1.42;;;21.60;97.10;;;;;;5052217;28;20456;-44
2022/06/09 09:41:47;;;;;;;6.75;1.15;;;21.80;96.50;;;;;;5052271;28;20056;-44
2022/06/09 09:44:16;;;;;;;7.55;1.70;;;21.90;95.40;;;;;;5052149;28;20052;-44
2022/06/09 09:46:43;;;;;;;9.10;1.40;;;21.90;95.50;;;;;;5052004;28;20080;-44
2022/06/09 09:49:20;;;;;;;6.65;1.15;;;21.80;94.70;;;;;;5052913;28;20084;-44
2022/06/09 09:51:48;;;;;;;5.22;1.10;;;21.90;94.50;;;;;;5052916;28;20091;-44
2022/06/09 09:54:19;;;;;;;6.43;1.77;;;21.90;94.40;;;;;;5052975;28;20144;-44
2022/06/09 09:56:47;;;;;;;8.35;1.20;;;22.00;93.70;;;;;;5053984;28;20118;-44
2022/06/09 09:59:23;;;;;;;8.93;1.50;;;22.10;94.00;;;;;;5071672;28;20057;-44
2022/06/09 10:10:12;;;;;;;3.50;0.90;;;22.80;92.60;;;;;;5073070;28;20045;-45
2022/06/09 10:12:38;;;;;;;4.10;1.00;;;22.90;91.30;;;;;;5071703;28;20052;-45
2022/06/09 10:15:06;;;;;;;8.98;1.20;;;23.00;91.40;;;;;;5071620;28;20060;-44
2022/06/09 10:17:39;;;;;;;7.22;1.30;;;23.10;91.50;;;;;;5072075;28;20044;-45
2022/06/09 10:20:29;;;;;;;4.82;1.00;;;23.20;90.40;;;;;;5072604;28;20502;-44
2022/06/09 10:23:02;;;;;;;6.47;0.88;;;23.20;89.60;;;;;;5061244;28;20117;-44
2022/06/09 10:25:33;;;;;;;7.57;1.35;;;23.20;90.10;;;;;;5071544;28;20719;-44
2022/06/09 10:28:02;;;;;;;7.65;1.10;;;23.30;90.70;;;;;;5071188;28;20056;-44
2022/06/09 10:30:38;;;;;;;4.95;1.20;;;23.30;90.10;;;;;;5072389;28;20053;-44
2022/06/09 10:33:10;;;;;;;6.00;1.08;;;23.50;90.30;;;;;;5072692;28;20091;-44
2022/06/09 10:35:41;;;;;;;6.20;1.17;;;23.60;90.40;;;;;;5071695;28;20056;-44
2022/06/09 10:38:13;;;;;;;6.15;1.25;;;23.70;89.90;;;;;;5072303;28;20560;-44
2022/06/09 10:40:42;;;;;;;9.88;1.08;;;23.80;90.20;;;;;;5071501;28;20045;-45
2022/06/09 10:43:14;;;;;;;4.85;1.00;;;23.90;87.80;;;;;;5072308;28;20063;-44
2022/06/09 10:45:43;;;;;;;5.63;1.00;;;23.90;86.50;;;;;;5072666;28;20132;-44
2022/06/09 10:56:32;;;;;;;4.72;1.15;;;23.50;87.20;;;;;;5072685;28;20071;-44
2022/06/09 10:59:02;;;;;;;8.45;1.63;;;23.50;88.90;;;;;;5071574;28;20152;-44
2022/06/09 11:01:31;;;;;;;9.60;1.75;;;23.50;90.20;;;;;;5071915;28;20080;-44
2022/06/09 11:03:58;;;;;;;4.32;1.15;;;23.50;89.80;;;;;;5071049;28;20134;-44
2022/06/09 11:06:36;;;;;;;4.63;1.05;;;23.60;89.90;;;;;;5071935;28;20059;-44
2022/06/09 11:09:12;;;;;;;6.15;1.27;;;23.70;89.70;;;;;;5071488;28;20049;-44
2022/06/09 11:11:46;;;;;;;3.80;0.75;;;23.80;89.70;;;;;;5072177;28;20489;-44
2022/06/09 11:14:22;;;;;;;4.10;0.88;;;23.80;88.20;;;;;;5071206;28;20087;-44
2022/06/09 11:16:53;;;;;;;2.25;0.70;;;23.90;85.80;;;;;;5072046;28;20160;-43
2022/06/09 11:19:35;;;;;;;4.88;1.10;;;24.10;86.30;;;;;;5071099;28;20146;-44
2022/06/09 11:22:05;;;;;;;5.68;1.15;;;24.20;85.00;;;;;;5072357;28;20138;-44
2022/06/09 11:24:35;;;;;;;7.60;1.40;;;24.30;83.70;;;;;;5070455;28;20524;-44
2022/06/09 11:27:12;;;;;;;3.55;1.17;;;24.30;82.70;;;;;;5052471;28;20140;-44
2022/06/09 11:29:46;;;;;;;6.95;1.13;;;24.30;85.20;;;;;;5072932;28;20052;-44
2022/06/09 11:32:17;;;;;;;7.13;1.48;;;24.50;81.90;;;;;;5076076;28;20088;-44
2022/06/09 11:34:55;;;;;;;8.13;1.80;;;24.60;83.30;;;;;;5074888;28;20435;-44
2022/06/09 11:37:46;;;;;;;7.07;1.40;;;24.60;83.00;;;;;;5074366;28;20056;-44
2022/06/09 11:40:22;;;;;;;4.40;1.10;;;24.60;83.60;;;;;;5068688;28;20402;-44
2022/06/09 11:42:56;;;;;;;8.13;1.60;;;24.60;83.00;;;;;;5075452;28;20548;-44
2022/06/09 11:45:26;;;;;;;3.97;1.10;;;24.60;82.10;;;;;;5074428;28;20144;-44
2022/06/09 11:47:54;;;;;;;7.00;1.35;;;24.70;80.60;;;;;;5064644;28;20077;-44
2022/06/09 11:50:22;;;;;;;5.60;1.20;;;24.70;79.10;;;;;;5060558;28;20103;-44
2022/06/09 11:52:49;;;;;;;5.38;1.10;;;24.70;77.80;;;;;;5068908;28;20132;-45
2022/06/09 11:55:57;;;;;;;5.40;1.25;;;24.70;78.80;;;;;;5056146;28;20114;-45
2022/06/09 11:58:43;;;;;;;5.75;1.30;;;24.80;77.00;;;;;;5059849;28;20053;-45
2022/06/09 12:01:16;;;;;;;9.10;1.58;;;24.90;79.70;;;;;;5043260;28;20059;-43
2022/06/09 12:03:58;;;;;;;6.50;1.27;;;25.00;78.80;;;;;;5055316;28;20063;-44
2022/06/09 12:06:27;;;;;;;8.40;1.83;;;25.10;77.90;;;;;;5054047;28;20079;-45
2022/06/09 12:09:01;;;;;;;5.85;1.30;;;25.20;78.70;;;;;;5072010;28;20125;-44
2022/06/09 12:11:50;;;;;;;4.35;1.17;;;25.10;75.90;;;;;;5072690;28;20044;-45
2022/06/09 12:14:17;;;;;;;4.50;0.98;;;25.00;74.60;;;;;;5076534;28;20056;-44
2022/06/09 12:16:56;;;;;;;6.32;1.95;;;25.00;76.30;;;;;;5059327;28;20080;-44
2022/06/09 12:19:24;;;;;;;5.43;1.10;;;24.90;76.90;;;;;;5072752;28;20132;-45
2022/06/09 12:21:52;;;;;;;3.85;1.23;;;24.80;77.40;;;;;;5073445;28;20091;-44
2022/06/09 12:24:30;;;;;;;5.35;1.05;;;24.70;77.30;;;;;;5073368;28;20055;-45
2022/06/09 12:27:06;;;;;;;5.60;1.20;;;24.70;76.90;;;;;;5073348;28;20049;-45
2022/06/09 12:29:41;;;;;;;4.43;1.08;;;24.80;77.80;;;;;;5073842;28;20135;-44
2022/06/09 12:32:46;;;;;;;6.95;1.23;;;24.80;76.90;;;;;;5058990;28;20052;-45
2022/06/09 12:35:22;;;;;;;6.10;1.00;;;24.90;75.80;;;;;;5030534;28;20052;-45
2022/06/09 12:37:52;;;;;;;5.72;1.58;;;25.00;75.70;;;;;;5069621;28;20052;-46
2022/06/09 12:40:21;;;;;;;5.43;1.23;;;25.00;74.60;;;;;;5071035;28;20130;-44
2022/06/09 12:42:55;;;;;;;6.95;1.10;;;25.00;75.30;;;;;;5064255;28;20045;-45
2022/06/09 12:45:22;;;;;;;4.43;1.48;;;25.10;75.90;;;;;;5056962;28;20123;-45
2022/06/09 12:47:54;;;;;;;7.82;1.83;;;25.10;75.60;;;;;;5057628;28;20093;-44
2022/06/09 12:50:24;;;;;;;5.55;1.27;;;25.00;75.50;;;;;;5065974;28;20073;-44
2022/06/09 12:52:52;;;;;;;8.57;1.53;;;25.00;76.30;;;;;;5062209;28;20328;-44
2022/06/09 12:55:20;;;;;;;8.05;1.77;;;25.10;74.20;;;;;;5071480;28;20510;-44
2022/06/09 12:57:48;;;;;;;5.13;1.50;;;25.00;74.80;;;;;;5064704;28;20076;-44
2022/06/09 13:00:19;;;;;;;5.80;1.27;;;25.10;76.30;;;;;;5067715;28;20396;-44
2022/06/09 13:02:46;;;;;;;5.50;1.23;;;25.20;76.10;;;;;;5053154;28;20126;-45
2022/06/09 13:05:19;;;;;;;5.75;1.45;;;25.20;76.00;;;;;;5055929;28;20049;-46
2022/06/09 13:07:52;;;;;;;6.57;1.38;;;25.20;71.80;;;;;;5053985;28;20497;-43
2022/06/09 13:10:21;;;;;;;6.05;1.38;;;25.20;73.90;;;;;;5052443;28;20053;-44
2022/06/09 13:12:51;;;;;;;5.05;1.10;;;25.20;73.90;;;;;;5059831;28;20098;-44
2022/06/09 13:15:25;;;;;;;4.65;1.38;;;25.30;73.50;;;;;;5061008;28;20415;-46
2022/06/09 13:17:51;;;;;;;6.18;1.30;;;25.40;70.20;;;;;;5059869;28;20045;-45